Time;durP1;ratioP1;P1;durP2;ratioP2;P2;SDS_P1;SDS_P2;PMS_P1;PMS_P2;Temp;Humidity;BMP_temperature;BMP_pressure;BME280_temperature;BME280_humidity;BME280_pressure;Samples;Min_cycle;Max_cycle;Signal;HPM_P1;HPM_P2
2021/12/22 00:02:18;;;;;;;;;;;-0.60;99.90;;;;;;7348474;19;110090;-87
2021/12/22 00:04:47;;;;;;;;;;;-0.50;99.90;;;;;;7350133;19;112135;-90
2021/12/22 00:07:15;;;;;;;;;;;-0.60;99.90;;;;;;7350551;19;109377;-88
2021/12/22 00:09:42;;;;;;;;;;;-0.60;99.90;;;;;;7351367;19;113064;-88
2021/12/22 00:12:09;;;;;;;;;;;-0.60;99.90;;;;;;7349631;19;112784;-88
2021/12/22 00:14:36;;;;;;;;;;;-0.60;99.90;;;;;;7349799;19;109755;-87
2021/12/22 00:17:03;;;;;;;;;;;-0.60;99.90;;;;;;7351022;19;114428;-89
2021/12/22 00:19:31;;;;;;;;;;;-0.60;99.90;;;;;;7354565;19;114723;-90
2021/12/22 00:21:58;;;;;;;;;;;-0.60;99.90;;;;;;7349546;19;111045;-88
2021/12/22 00:24:25;;;;;;;;;;;-0.60;99.90;;;;;;7348632;19;115243;-92
2021/12/22 00:26:53;;;;;;;;;;;-0.60;99.90;;;;;;7351936;19;109390;-89
2021/12/22 00:29:21;;;;;;;;;;;-0.60;99.90;;;;;;7350024;19;113163;-88
2021/12/22 00:31:58;;;;;;;;;;;-0.70;99.90;;;;;;7350025;19;114617;-88
2021/12/22 00:34:27;;;;;;;;;;;-0.70;99.90;;;;;;7349938;19;109527;-89
2021/12/22 00:36:54;;;;;;;;;;;-0.70;99.90;;;;;;7347800;19;113187;-88
2021/12/22 00:39:21;;;;;;;;;;;-0.80;99.90;;;;;;7348150;19;115078;-88
2021/12/22 00:41:49;;;;;;;;;;;-0.90;99.90;;;;;;7351600;19;109487;-88
2021/12/22 00:44:16;;;;;;;;;;;-0.90;99.90;;;;;;7348394;19;112351;-88
2021/12/22 00:46:43;;;;;;;;;;;-0.90;99.90;;;;;;7346387;19;109540;-88
2021/12/22 00:49:10;;;;;;;;;;;-0.90;99.90;;;;;;7348686;19;113649;-88
2021/12/22 00:51:37;;;;;;;;;;;-0.80;99.90;;;;;;7346639;19;115515;-88
2021/12/22 00:54:04;;;;;;;;;;;-0.90;99.90;;;;;;7347893;19;109293;-88
2021/12/22 00:56:32;;;;;;;;;;;-0.90;99.90;;;;;;7346834;19;113607;-88
2021/12/22 00:58:59;;;;;;;;;;;-1.00;99.90;;;;;;7347432;19;114680;-88
2021/12/22 01:01:26;;;;;;;;;;;-0.90;99.90;;;;;;7346292;19;110621;-88
2021/12/22 01:03:53;;;;;;;;;;;-1.00;99.90;;;;;;7352505;19;114087;-88
2021/12/22 01:06:20;;;;;;;;;;;-0.90;99.90;;;;;;7347423;19;109428;-88
2021/12/22 01:08:47;;;;;;;;;;;-0.90;99.90;;;;;;7348485;19;113915;-88
2021/12/22 01:11:14;;;;;;;;;;;-0.90;99.90;;;;;;7345804;19;114101;-87
2021/12/22 01:13:41;;;;;;;;;;;-1.00;99.90;;;;;;7348173;19;109597;-88
2021/12/22 01:16:08;;;;;;;;;;;-1.10;99.90;;;;;;7348390;19;113073;-88
2021/12/22 01:18:36;;;;;;;;;;;-1.10;99.90;;;;;;7346428;19;116156;-88
2021/12/22 01:23:35;;;;;;;;;;;-1.10;99.90;;;;;;7349565;19;113375;-88
2021/12/22 01:26:04;;;;;;;;;;;-1.10;99.90;;;;;;7353694;19;112282;-87
2021/12/22 01:28:32;;;;;;;;;;;-1.00;99.90;;;;;;7349995;19;113651;-90
2021/12/22 01:31:03;;;;;;;;;;;-1.00;99.90;;;;;;7347887;19;114340;-88
2021/12/22 01:33:30;;;;;;;;;;;-1.00;99.90;;;;;;7348299;19;109370;-91
2021/12/22 01:35:57;;;;;;;;;;;-0.90;99.90;;;;;;7349607;19;112037;-89
2021/12/22 01:38:24;;;;;;;;;;;-1.00;99.90;;;;;;7348400;19;114461;-89
2021/12/22 01:40:51;;;;;;;;;;;-1.00;99.90;;;;;;7347516;19;109377;-89
2021/12/22 01:43:18;;;;;;;;;;;-1.10;99.90;;;;;;7350705;19;113648;-91
2021/12/22 01:46:08;;;;;;;;;;;-1.10;99.90;;;;;;7346015;19;114782;-88
2021/12/22 01:51:30;;;;;;;;;;;-1.20;99.90;;;;;;7347917;19;111921;-87
2021/12/22 01:53:59;;;;;;;;;;;-1.20;99.90;;;;;;7346758;19;109363;-88
2021/12/22 01:56:29;;;;;;;;;;;-1.10;99.90;;;;;;7346812;19;113990;-89
2021/12/22 01:58:57;;;;;;;;;;;-1.10;99.90;;;;;;7345345;19;114611;-89
2021/12/22 02:01:25;;;;;;;;;;;-1.10;99.90;;;;;;7347025;19;109509;-88
2021/12/22 02:03:53;;;;;;;;;;;-1.10;99.90;;;;;;7345281;19;112368;-89
2021/12/22 02:06:20;;;;;;;;;;;-1.10;99.90;;;;;;7346476;19;115257;-88
2021/12/22 02:08:47;;;;;;;;;;;-1.10;99.90;;;;;;7349954;19;109813;-89
2021/12/22 02:11:16;;;;;;;;;;;-1.10;99.90;;;;;;7345720;19;114237;-87
2021/12/22 02:13:48;;;;;;;;;;;-1.20;99.90;;;;;;7346044;19;109568;-88
2021/12/22 02:16:16;;;;;;;;;;;-1.20;99.90;;;;;;7346322;19;112871;-88
2021/12/22 02:18:46;;;;;;;;;;;-1.20;99.90;;;;;;7345774;19;115411;-87
2021/12/22 02:21:13;;;;;;;;;;;-1.30;99.90;;;;;;7344909;19;109394;-88
2021/12/22 02:23:41;;;;;;;;;;;-1.30;99.90;;;;;;7346009;19;114066;-88
2021/12/22 02:26:16;;;;;;;;;;;-1.30;99.90;;;;;;7344616;19;114414;-89
2021/12/22 02:28:46;;;;;;;;;;;-1.40;99.90;;;;;;7346079;19;110148;-89
2021/12/22 02:31:17;;;;;;;;;;;-1.40;99.90;;;;;;7349832;19;113212;-87
2021/12/22 02:33:48;;;;;;;;;;;-1.40;99.90;;;;;;7345588;19;109250;-89
2021/12/22 02:38:46;;;;;;;;;;;-1.40;99.90;;;;;;7346647;19;114322;-88
2021/12/22 02:41:15;;;;;;;;;;;-1.40;99.90;;;;;;7344634;19;109239;-88
2021/12/22 02:43:54;;;;;;;;;;;-1.40;99.90;;;;;;7345381;19;111160;-87
2021/12/22 02:46:22;;;;;;;;;;;-1.40;99.90;;;;;;7345052;19;112949;-88
2021/12/22 02:48:49;;;;;;;;;;;-1.40;99.90;;;;;;7344667;19;109370;-88
2021/12/22 02:51:17;;;;;;;;;;;-1.40;99.90;;;;;;7345817;19;112504;-88
2021/12/22 02:53:51;;;;;;;;;;;-1.40;99.90;;;;;;7348630;19;112393;-88
2021/12/22 03:01:39;;;;;;;;;;;-1.40;99.90;;;;;;7346822;19;109698;-88
2021/12/22 03:04:11;;;;;;;;;;;-1.40;99.90;;;;;;7344199;19;113811;-88
2021/12/22 03:06:46;;;;;;;;;;;-1.50;99.90;;;;;;7343820;19;114485;-88
2021/12/22 03:09:26;;;;;;;;;;;-1.50;99.90;;;;;;7345342;19;109399;-87
2021/12/22 03:11:54;;;;;;;;;;;-1.50;99.90;;;;;;7343270;19;113900;-88
2021/12/22 03:14:21;;;;;;;;;;;-1.50;99.90;;;;;;7344690;19;114210;-88
2021/12/22 03:16:48;;;;;;;;;;;-1.50;99.90;;;;;;7348401;19;109449;-88
2021/12/22 03:19:17;;;;;;;;;;;-1.50;99.90;;;;;;7344416;19;115649;-88
2021/12/22 03:21:45;;;;;;;;;;;-1.60;99.90;;;;;;7347036;19;109845;-88
2021/12/22 03:24:13;;;;;;;;;;;-1.60;99.90;;;;;;7350598;19;114300;-88
2021/12/22 03:26:42;;;;;;;;;;;-1.60;99.90;;;;;;7349896;19;111199;-88
2021/12/22 03:29:09;;;;;;;;;;;-1.60;99.90;;;;;;7350395;19;109386;-88
2021/12/22 03:31:36;;;;;;;;;;;-1.60;99.90;;;;;;7350718;19;111251;-88
2021/12/22 03:34:04;;;;;;;;;;;-1.60;99.90;;;;;;7349488;19;114809;-87
2021/12/22 03:36:31;;;;;;;;;;;-1.60;99.90;;;;;;7351011;19;109310;-87
2021/12/22 03:38:58;;;;;;;;;;;-1.60;99.90;;;;;;7355107;19;114143;-87
2021/12/22 03:41:26;;;;;;;;;;;-1.60;99.90;;;;;;7350466;19;109261;-88
2021/12/22 03:43:53;;;;;;;;;;;-1.60;99.90;;;;;;7349796;19;112839;-88
2021/12/22 03:46:20;;;;;;;;;;;-1.70;99.90;;;;;;7349899;19;113498;-88
2021/12/22 03:48:47;;;;;;;;;;;-1.70;99.90;;;;;;7349470;19;109383;-88
2021/12/22 03:51:19;;;;;;;;;;;-1.70;99.90;;;;;;7349934;19;113148;-89
2021/12/22 03:53:46;;;;;;;;;;;-1.70;99.90;;;;;;7348602;19;113966;-88
2021/12/22 03:56:13;;;;;;;;;;;-1.70;99.90;;;;;;7349536;19;109450;-88
2021/12/22 03:58:39;;;;;;;;;;;-1.70;99.90;;;;;;7350500;19;110551;-87
2021/12/22 04:01:07;;;;;;;;;;;-1.70;99.90;;;;;;7354969;19;114471;-88
2021/12/22 04:03:35;;;;;;;;;;;-1.70;99.90;;;;;;7348457;19;113687;-87
2021/12/22 04:06:02;;;;;;;;;;;-1.60;99.90;;;;;;7349563;19;112427;-87
2021/12/22 04:08:29;;;;;;;;;;;-1.70;99.90;;;;;;7348762;19;109385;-88
2021/12/22 04:10:56;;;;;;;;;;;-1.70;99.90;;;;;;7347491;19;112136;-86
2021/12/22 04:13:23;;;;;;;;;;;-1.70;99.90;;;;;;7349792;19;112420;-87
2021/12/22 04:15:50;;;;;;;;;;;-1.70;99.90;;;;;;7348290;19;109418;-87
2021/12/22 04:18:18;;;;;;;;;;;-1.70;99.90;;;;;;7349755;19;111220;-87
2021/12/22 04:20:45;;;;;;;;;;;-1.70;99.90;;;;;;7354060;19;114883;-87
2021/12/22 04:23:12;;;;;;;;;;;-1.70;99.90;;;;;;7348121;19;113878;-87
2021/12/22 04:25:39;;;;;;;;;;;-1.70;99.90;;;;;;7349200;19;115029;-87
2021/12/22 04:28:09;;;;;;;;;;;-1.80;99.90;;;;;;7349541;19;109328;-88
2021/12/22 04:30:37;;;;;;;;;;;-1.80;99.90;;;;;;7351963;19;111235;-90
2021/12/22 04:33:04;;;;;;;;;;;-1.80;99.90;;;;;;7349872;19;111282;-87
2021/12/22 04:35:31;;;;;;;;;;;-1.80;99.90;;;;;;7350094;19;109861;-88
2021/12/22 04:37:58;;;;;;;;;;;-1.80;99.90;;;;;;7349445;19;111317;-89
2021/12/22 04:40:25;;;;;;;;;;;-1.70;99.90;;;;;;7349726;19;114941;-86
2021/12/22 04:42:52;;;;;;;;;;;-1.80;99.90;;;;;;7352387;19;109360;-86
2021/12/22 04:45:19;;;;;;;;;;;-1.80;99.90;;;;;;7349624;19;114567;-86
2021/12/22 04:47:47;;;;;;;;;;;-1.80;99.90;;;;;;7348584;19;109318;-87
2021/12/22 04:50:17;;;;;;;;;;;-1.90;99.90;;;;;;7349143;19;110941;-88
2021/12/22 04:52:54;;;;;;;;;;;-1.80;99.90;;;;;;7347721;19;115398;-87
2021/12/22 04:55:21;;;;;;;;;;;-1.90;99.90;;;;;;7349576;19;109354;-87
2021/12/22 04:57:48;;;;;;;;;;;-1.90;99.90;;;;;;7350199;19;113429;-88
2021/12/22 05:00:16;;;;;;;;;;;-1.90;99.90;;;;;;7349470;19;115484;-86
2021/12/22 05:02:43;;;;;;;;;;;-1.90;99.90;;;;;;7347574;19;109906;-86
2021/12/22 05:05:11;;;;;;;;;;;-1.90;99.90;;;;;;7352341;19;114366;-86
2021/12/22 05:07:38;;;;;;;;;;;-2.00;99.90;;;;;;7348448;19;109469;-87
2021/12/22 05:10:05;;;;;;;;;;;-2.00;99.90;;;;;;7347199;19;111006;-87
2021/12/22 05:12:32;;;;;;;;;;;-2.00;99.90;;;;;;7349676;19;112127;-86
2021/12/22 05:14:59;;;;;;;;;;;-2.00;99.90;;;;;;7346678;19;109349;-89
2021/12/22 05:20:12;;;;;;;;;;;-1.90;99.90;;;;;;7348745;19;112253;-88
2021/12/22 05:22:39;;;;;;;;;;;-1.90;99.90;;;;;;7345989;19;109359;-86
2021/12/22 05:25:07;;;;;;;;;;;-1.90;99.90;;;;;;7347262;19;111467;-90
2021/12/22 05:27:35;;;;;;;;;;;-2.00;99.90;;;;;;7352336;19;112253;-89
2021/12/22 05:30:03;;;;;;;;;;;-2.10;99.90;;;;;;7348955;19;111162;-85
2021/12/22 05:32:32;;;;;;;;;;;-2.10;99.90;;;;;;7346577;19;112906;-87
2021/12/22 05:35:00;;;;;;;;;;;-2.10;99.90;;;;;;7347811;19;109281;-87
2021/12/22 05:37:27;;;;;;;;;;;-2.20;99.90;;;;;;7347647;19;110517;-89
2021/12/22 05:39:57;;;;;;;;;;;-2.10;99.90;;;;;;7347276;19;113964;-86
2021/12/22 05:42:25;;;;;;;;;;;-2.10;99.90;;;;;;7346287;19;109355;-88
2021/12/22 05:44:52;;;;;;;;;;;-2.10;99.90;;;;;;7344247;19;114048;-86
2021/12/22 05:47:19;;;;;;;;;;;-2.10;99.90;;;;;;7348025;19;114943;-86
2021/12/22 05:49:48;;;;;;;;;;;-2.10;99.90;;;;;;7351773;19;109214;-87
2021/12/22 05:52:15;;;;;;;;;;;-2.10;99.90;;;;;;7346135;19;114999;-86
2021/12/22 05:54:42;;;;;;;;;;;-2.10;99.90;;;;;;7346417;19;109334;-86
2021/12/22 05:57:09;;;;;;;;;;;-2.10;99.90;;;;;;7347120;19;110120;-86
2021/12/22 05:59:35;;;;;;;;;;;-2.10;99.90;;;;;;7344805;19;111957;-89
2021/12/22 06:02:03;;;;;;;;;;;-2.10;99.90;;;;;;7347831;19;109453;-84
2021/12/22 06:04:30;;;;;;;;;;;-2.10;99.90;;;;;;7341067;19;111022;-82
2021/12/22 06:06:57;;;;;;;;;;;-2.10;99.90;;;;;;7345866;19;112162;-83
2021/12/22 06:09:23;;;;;;;;;;;-2.10;99.90;;;;;;7343864;19;109447;-82
2021/12/22 06:11:50;;;;;;;;;;;-2.10;99.90;;;;;;7349764;19;110812;-82
2021/12/22 06:14:17;;;;;;;;;;;-2.20;99.90;;;;;;7346034;19;109900;-83
2021/12/22 06:16:44;;;;;;;;;;;-2.20;99.90;;;;;;7344993;19;110660;-82
2021/12/22 06:19:13;;;;;;;;;;;-2.20;99.90;;;;;;7345726;19;115371;-84
2021/12/22 06:21:40;;;;;;;;;;;-2.20;99.90;;;;;;7346423;19;109411;-83
2021/12/22 06:24:08;;;;;;;;;;;-2.30;99.90;;;;;;7342927;19;111411;-83
2021/12/22 06:26:35;;;;;;;;;;;-2.20;99.90;;;;;;7343571;19;112017;-83
2021/12/22 06:29:02;;;;;;;;;;;-2.20;99.90;;;;;;7345354;19;109474;-82
2021/12/22 06:31:29;;;;;;;;;;;-2.30;99.90;;;;;;7350342;19;114094;-83
2021/12/22 06:33:56;;;;;;;;;;;-2.30;99.90;;;;;;7346269;19;109357;-82
2021/12/22 06:36:23;;;;;;;;;;;-2.30;99.90;;;;;;7344627;19;111346;-82
2021/12/22 06:38:50;;;;;;;;;;;-2.30;99.90;;;;;;7345823;19;112815;-83
2021/12/22 06:41:16;;;;;;;;;;;-2.30;99.90;;;;;;7343166;19;109462;-82
2021/12/22 06:43:43;;;;;;;;;;;-2.30;99.90;;;;;;7343513;19;110676;-84
2021/12/22 06:46:10;;;;;;;;;;;-2.20;99.90;;;;;;7344227;19;112109;-83
2021/12/22 06:48:37;;;;;;;;;;;-2.20;99.90;;;;;;7344255;19;109296;-86
2021/12/22 06:51:04;;;;;;;;;;;-2.20;99.90;;;;;;7345929;19;110732;-84
2021/12/22 06:53:34;;;;;;;;;;;-2.20;99.90;;;;;;7347935;19;112508;-83
2021/12/22 06:56:01;;;;;;;;;;;-2.20;99.90;;;;;;7345029;19;111061;-83
2021/12/22 06:58:28;;;;;;;;;;;-2.20;99.90;;;;;;7343953;19;113009;-84
2021/12/22 07:00:55;;;;;;;;;;;-2.20;99.90;;;;;;7341737;19;109311;-84
2021/12/22 07:03:22;;;;;;;;;;;-2.20;99.90;;;;;;7341946;19;111898;-85
2021/12/22 07:05:49;;;;;;;;;;;-2.30;99.90;;;;;;7343531;19;110553;-82
2021/12/22 07:08:16;;;;;;;;;;;-2.30;99.90;;;;;;7342922;19;109333;-81
2021/12/22 07:10:43;;;;;;;;;;;-2.30;99.90;;;;;;7346117;19;114310;-82
2021/12/22 07:13:10;;;;;;;;;;;-2.30;99.90;;;;;;7343572;19;111732;-82
2021/12/22 07:15:37;;;;;;;;;;;-2.30;99.90;;;;;;7351594;19;109285;-84
2021/12/22 07:18:08;;;;;;;;;;;-2.30;99.90;;;;;;7341788;19;112703;-82
2021/12/22 07:20:35;;;;;;;;;;;-2.30;99.90;;;;;;7345415;19;109317;-83
2021/12/22 07:23:02;;;;;;;;;;;-2.30;99.90;;;;;;7342204;19;110691;-83
2021/12/22 07:25:30;;;;;;;;;;;-2.30;99.90;;;;;;7344394;19;112296;-83
2021/12/22 07:27:57;;;;;;;;;;;-2.30;99.90;;;;;;7343939;19;109374;-82
2021/12/22 07:30:24;;;;;;;;;;;-2.30;99.90;;;;;;7343058;19;109597;-82
2021/12/22 07:32:56;;;;;;;;;;;-2.30;99.90;;;;;;7344520;19;110664;-82
2021/12/22 07:35:28;;;;;;;;;;;-2.40;99.90;;;;;;7343874;19;109623;-82
2021/12/22 07:38:07;;;;;;;;;;;-2.40;99.90;;;;;;7348194;19;111403;-82
2021/12/22 07:40:34;;;;;;;;;;;-2.50;99.90;;;;;;7343124;19;109353;-82
2021/12/22 07:43:01;;;;;;;;;;;-2.40;99.90;;;;;;7342440;19;109595;-81
2021/12/22 07:45:28;;;;;;;;;;;-2.40;99.90;;;;;;7343300;19;112003;-82
2021/12/22 07:47:54;;;;;;;;;;;-2.40;99.90;;;;;;7341908;19;110619;-82
2021/12/22 07:50:21;;;;;;;;;;;-2.50;99.90;;;;;;7343501;19;110803;-84
2021/12/22 07:52:48;;;;;;;;;;;-2.50;99.90;;;;;;7342998;19;112857;-81
2021/12/22 07:55:15;;;;;;;;;;;-2.50;99.90;;;;;;7342342;19;109311;-82
2021/12/22 07:57:42;;;;;;;;;;;-2.50;99.90;;;;;;7342677;19;111075;-82
2021/12/22 08:00:09;;;;;;;;;;;-2.50;99.90;;;;;;7345016;19;112067;-82
2021/12/22 08:02:37;;;;;;;;;;;-2.40;99.90;;;;;;7344528;19;114084;-82
2021/12/22 08:05:04;;;;;;;;;;;-2.40;99.90;;;;;;7339182;19;111849;-82
2021/12/22 08:07:31;;;;;;;;;;;-2.40;99.90;;;;;;7345568;19;109321;-82
2021/12/22 08:09:58;;;;;;;;;;;-2.30;99.90;;;;;;7348518;19;110948;-82
2021/12/22 08:12:25;;;;;;;;;;;-2.30;99.90;;;;;;7349122;19;112362;-82
2021/12/22 08:14:52;;;;;;;;;;;-2.20;99.90;;;;;;7349823;19;109499;-81
2021/12/22 08:17:20;;;;;;;;;;;-2.20;99.90;;;;;;7349044;19;110896;-82
2021/12/22 08:19:48;;;;;;;;;;;-2.30;99.90;;;;;;7350076;19;115229;-82
2021/12/22 08:22:15;;;;;;;;;;;-2.20;99.90;;;;;;7355058;19;109030;-84
2021/12/22 08:24:42;;;;;;;;;;;-2.20;99.90;;;;;;7347937;19;115051;-84
2021/12/22 08:27:09;;;;;;;;;;;-2.20;99.90;;;;;;7349472;19;109285;-83
2021/12/22 08:29:41;;;;;;;;;;;-2.20;99.90;;;;;;7346966;19;110740;-84
2021/12/22 08:32:09;;;;;;;;;;;-2.10;99.90;;;;;;7345138;19;113247;-82
2021/12/22 08:34:40;;;;;;;;;;;-2.10;99.90;;;;;;7349958;19;109373;-83
2021/12/22 08:39:54;;;;;;;;;;;-2.00;99.90;;;;;;7349131;19;111867;-83
2021/12/22 08:42:21;;;;;;;;;;;-1.90;99.90;;;;;;7354528;19;109273;-83
2021/12/22 08:44:48;;;;;;;;;;;-1.80;99.90;;;;;;7345375;19;112201;-83
2021/12/22 08:47:15;;;;;;;;;;;-1.80;99.90;;;;;;7348452;19;109194;-82
2021/12/22 08:49:43;;;;;;;;;;;-1.70;99.90;;;;;;7349237;19;111131;-82
2021/12/22 08:52:10;;;;;;;;;;;-1.70;99.90;;;;;;7345204;19;112015;-82
2021/12/22 08:54:36;;;;;;;;;;;-1.70;99.90;;;;;;7347446;19;109485;-82
2021/12/22 08:57:04;;;;;;;;;;;-1.60;99.90;;;;;;7346961;19;109670;-82
2021/12/22 08:59:31;;;;;;;;;;;-1.60;99.90;;;;;;7347193;19;111743;-82
2021/12/22 09:01:58;;;;;;;;;;;-1.50;99.90;;;;;;7347019;19;109424;-81
2021/12/22 09:04:25;;;;;;;;;;;-1.50;99.90;;;;;;7351809;19;110687;-82
2021/12/22 09:06:52;;;;;;;;;;;-1.40;99.90;;;;;;7345940;19;109397;-81
2021/12/22 09:09:20;;;;;;;;;;;-1.40;99.90;;;;;;7347244;19;110832;-81
2021/12/22 09:11:47;;;;;;;;;;;-1.30;99.90;;;;;;7346509;19;113155;-82
2021/12/22 09:14:15;;;;;;;;;;;-1.20;99.90;;;;;;7349102;19;109310;-81
2021/12/22 09:16:42;;;;;;;;;;;-1.20;99.90;;;;;;7347713;19;111887;-83
2021/12/22 09:19:10;;;;;;;;;;;-1.10;99.90;;;;;;7345827;19;112003;-82
2021/12/22 09:21:37;;;;;;;;;;;-1.00;99.90;;;;;;7345866;19;109431;-82
2021/12/22 09:24:04;;;;;;;;;;;-0.90;99.90;;;;;;7345617;19;110692;-82
2021/12/22 09:26:31;;;;;;;;;;;-0.90;99.90;;;;;;7351388;19;112155;-82
2021/12/22 09:28:58;;;;;;;;;;;-0.80;99.90;;;;;;7346675;19;112200;-82
2021/12/22 09:31:25;;;;;;;;;;;-0.70;99.90;;;;;;7346610;19;112002;-83
2021/12/22 09:33:52;;;;;;;;;;;-0.60;99.90;;;;;;7346303;19;109325;-84
2021/12/22 09:36:20;;;;;;;;;;;-0.60;99.90;;;;;;7348416;19;109148;-83
2021/12/22 09:38:47;;;;;;;;;;;-0.50;99.90;;;;;;7345377;19;111992;-85
2021/12/22 09:41:14;;;;;;;;;;;-0.40;99.90;;;;;;7347486;19;109320;-82
2021/12/22 09:43:41;;;;;;;;;;;-0.30;99.90;;;;;;7344712;19;111113;-82
2021/12/22 09:46:12;;;;;;;;;;;-0.30;99.90;;;;;;7346691;19;112056;-84
2021/12/22 09:53:44;;;;;;;;;;;0.00;99.90;;;;;;7346387;19;109313;-83
2021/12/22 09:56:12;;;;;;;;;;;0.00;99.90;;;;;;7345303;19;111695;-83
2021/12/22 09:58:39;;;;;;;;;;;0.10;99.90;;;;;;7343665;19;110514;-85
2021/12/22 10:01:06;;;;;;;;;;;0.20;99.90;;;;;;7342692;19;109672;-86
2021/12/22 10:03:34;;;;;;;;;;;0.30;99.90;;;;;;7344667;19;110433;-85
2021/12/22 10:06:01;;;;;;;;;;;0.30;99.90;;;;;;7341628;19;111721;-82
2021/12/22 10:08:29;;;;;;;;;;;0.40;99.90;;;;;;7344196;19;109892;-84
2021/12/22 10:10:59;;;;;;;;;;;0.50;99.90;;;;;;7349089;19;110958;-82
2021/12/22 10:13:26;;;;;;;;;;;0.50;99.90;;;;;;7346539;19;109192;-85
2021/12/22 10:15:54;;;;;;;;;;;0.60;99.90;;;;;;7345151;19;113697;-85
2021/12/22 10:18:25;;;;;;;;;;;0.60;99.90;;;;;;7345665;19;111898;-84
2021/12/22 10:20:54;;;;;;;;;;;0.70;99.90;;;;;;7347302;19;109321;-86
2021/12/22 10:23:29;;;;;;;;;;;0.80;99.90;;;;;;7344224;19;111140;-83
2021/12/22 10:25:57;;;;;;;;;;;0.80;99.90;;;;;;7339820;19;114201;-82
2021/12/22 10:28:26;;;;;;;;;;;0.90;99.90;;;;;;7345736;19;109432;-83
2021/12/22 10:30:58;;;;;;;;;;;1.00;99.90;;;;;;7349307;19;111319;-83
2021/12/22 10:33:27;;;;;;;;;;;1.00;99.90;;;;;;7346428;19;109550;-84
2021/12/22 10:35:58;;;;;;;;;;;1.10;99.90;;;;;;7345706;19;115455;-85
2021/12/22 10:38:26;;;;;;;;;;;1.20;99.90;;;;;;7344033;19;112345;-86
2021/12/22 10:40:54;;;;;;;;;;;1.20;99.90;;;;;;7346280;19;109318;-84
2021/12/22 10:43:24;;;;;;;;;;;1.40;99.90;;;;;;7344058;19;112131;-84
2021/12/22 10:45:52;;;;;;;;;;;1.50;99.90;;;;;;7343406;19;110692;-85
2021/12/22 10:51:10;;;;;;;;;;;1.70;99.90;;;;;;7345188;19;111622;-85
2021/12/22 10:53:41;;;;;;;;;;;1.80;99.90;;;;;;7350171;19;110674;-83
2021/12/22 10:56:08;;;;;;;;;;;1.90;99.90;;;;;;7345468;19;111301;-84
2021/12/22 10:58:35;;;;;;;;;;;1.90;99.90;;;;;;7345537;19;111795;-84
2021/12/22 11:01:05;;;;;;;;;;;2.00;99.90;;;;;;7336731;19;109398;-84
2021/12/22 11:03:48;;;;;;;;;;;2.10;99.90;;;;;;7345956;19;110897;-84
2021/12/22 11:06:23;;;;;;;;;;;2.20;99.90;;;;;;7338420;19;111961;-84
2021/12/22 11:08:54;;;;;;;;;;;2.30;99.90;;;;;;7343656;19;109630;-84
2021/12/22 11:11:21;;;;;;;;;;;2.40;99.90;;;;;;7344271;19;110978;-85
2021/12/22 11:14:06;;;;;;;;;;;2.50;99.90;;;;;;7344452;19;117505;-84
2021/12/22 11:16:49;;;;;;;;;;;2.50;99.90;;;;;;7350440;19;109414;-84
2021/12/22 11:19:16;;;;;;;;;;;2.60;99.90;;;;;;7341717;19;112057;-84
2021/12/22 11:22:07;;;;;;;;;;;2.60;99.90;;;;;;7342568;19;109959;-85
2021/12/22 11:24:38;;;;;;;;;;;2.70;99.90;;;;;;7337171;19;109925;-84
2021/12/22 11:27:06;;;;;;;;;;;2.80;99.90;;;;;;7339898;19;110534;-84
2021/12/22 11:29:34;;;;;;;;;;;2.80;99.90;;;;;;7338307;19;109935;-84
2021/12/22 11:32:03;;;;;;;;;;;2.90;99.90;;;;;;7342617;19;113722;-84
2021/12/22 11:34:34;;;;;;;;;;;2.90;99.90;;;;;;7342012;19;111855;-84
2021/12/22 11:37:02;;;;;;;;;;;3.00;99.90;;;;;;7344462;19;109464;-84
2021/12/22 11:39:32;;;;;;;;;;;3.10;99.90;;;;;;7348875;19;111426;-84
2021/12/22 11:42:02;;;;;;;;;;;3.10;99.90;;;;;;7345208;19;109865;-84
2021/12/22 11:44:29;;;;;;;;;;;3.20;99.90;;;;;;7350166;19;110632;-84
2021/12/22 11:46:57;;;;;;;;;;;3.30;99.90;;;;;;7349190;19;114943;-84
2021/12/22 11:49:25;;;;;;;;;;;3.30;99.90;;;;;;7352270;19;109246;-85
2021/12/22 11:51:52;;;;;;;;;;;3.50;99.90;;;;;;7349730;19;111218;-84
2021/12/22 11:54:25;;;;;;;;;;;3.50;99.90;;;;;;7350054;19;114986;-85
2021/12/22 11:56:54;;;;;;;;;;;3.60;99.90;;;;;;7350292;19;109198;-84
2021/12/22 11:59:38;;;;;;;;;;;3.70;99.90;;;;;;7350344;19;110725;-84
2021/12/22 12:02:21;;;;;;;;;;;3.80;99.90;;;;;;7351966;19;112073;-83
2021/12/22 12:04:51;;;;;;;;;;;3.90;99.90;;;;;;7346325;19;111827;-84
2021/12/22 12:07:37;;;;;;;;;;;4.00;99.90;;;;;;7344095;19;114037;-84
2021/12/22 12:10:22;;;;;;;;;;;4.10;99.90;;;;;;7346966;19;109832;-84
2021/12/22 12:12:52;;;;;;;;;;;4.20;99.90;;;;;;7346034;19;111657;-84
2021/12/22 12:15:37;;;;;;;;;;;4.30;99.90;;;;;;7344250;19;112065;-84
2021/12/22 12:21:40;;;;;;;;;;;4.60;99.90;;;;;;7345788;19;110924;-84
2021/12/22 12:24:30;;;;;;;;;;;4.70;99.90;;;;;;7344775;19;112789;-84
2021/12/22 12:27:01;;;;;;;;;;;4.80;99.90;;;;;;7348646;19;110951;-84
2021/12/22 12:29:47;;;;;;;;;;;4.90;99.90;;;;;;7339190;19;111755;-84
2021/12/22 12:32:37;;;;;;;;;;;4.90;99.90;;;;;;7349203;19;109966;-84
2021/12/22 12:35:19;;;;;;;;;;;4.90;99.90;;;;;;7347827;19;110629;-84
2021/12/22 12:38:24;;;;;;;;;;;4.90;99.90;;;;;;7346310;19;112279;-85
2021/12/22 12:40:54;;;;;;;;;;;4.90;99.90;;;;;;7348752;19;109400;-84
2021/12/22 12:43:40;;;;;;;;;;;5.00;99.90;;;;;;7348093;19;109344;-84
2021/12/22 12:46:38;;;;;;;;;;;5.10;99.90;;;;;;7346247;19;112850;-84
2021/12/22 12:49:07;;;;;;;;;;;5.10;99.90;;;;;;7353430;19;109271;-84
2021/12/22 12:51:37;;;;;;;;;;;5.20;99.90;;;;;;7348336;19;112149;-84
2021/12/22 12:54:04;;;;;;;;;;;5.20;99.90;;;;;;7349219;19;109594;-83
2021/12/22 12:56:34;;;;;;;;;;;5.20;99.90;;;;;;7348278;19;111129;-84
2021/12/22 12:59:03;;;;;;;;;;;5.30;99.90;;;;;;7349499;19;109814;-84
2021/12/22 13:01:52;;;;;;;;;;;5.40;99.90;;;;;;7348053;19;109781;-84
2021/12/22 13:04:20;;;;;;;;;;;5.40;99.90;;;;;;7347090;19;110836;-84
2021/12/22 13:06:47;;;;;;;;;;;5.40;99.90;;;;;;7345843;19;112028;-85
2021/12/22 13:09:24;;;;;;;;;;;5.40;99.90;;;;;;7346260;19;109482;-84
2021/12/22 13:11:54;;;;;;;;;;;5.50;99.90;;;;;;7353803;19;114112;-84
2021/12/22 13:17:23;;;;;;;;;;;5.70;99.90;;;;;;7348310;19;111018;-84
2021/12/22 13:19:53;;;;;;;;;;;5.70;99.90;;;;;;7344995;19;111673;-84
2021/12/22 13:22:25;;;;;;;;;;;5.70;99.90;;;;;;7349103;19;109416;-84
2021/12/22 13:25:10;;;;;;;;;;;5.60;99.90;;;;;;7348031;19;110822;-84
2021/12/22 13:27:41;;;;;;;;;;;5.70;99.90;;;;;;7347214;19;111802;-84
2021/12/22 13:30:10;;;;;;;;;;;5.60;99.90;;;;;;7348420;19;109489;-84
2021/12/22 13:32:53;;;;;;;;;;;5.60;99.90;;;;;;7346312;19;111209;-84
2021/12/22 13:35:29;;;;;;;;;;;5.60;99.90;;;;;;7353613;19;112099;-84
2021/12/22 13:37:56;;;;;;;;;;;5.60;99.90;;;;;;7346607;19;109161;-84
2021/12/22 13:40:34;;;;;;;;;;;5.70;99.90;;;;;;7346262;19;112428;-84
2021/12/22 13:43:00;;;;;;;;;;;5.70;99.90;;;;;;7347598;19;109911;-84
2021/12/22 13:45:28;;;;;;;;;;;5.70;99.90;;;;;;7346167;19;111008;-84
2021/12/22 13:47:54;;;;;;;;;;;5.80;99.90;;;;;;7347266;19;111723;-84
2021/12/22 13:50:23;;;;;;;;;;;5.80;99.90;;;;;;7344324;19;109387;-84
2021/12/22 13:52:49;;;;;;;;;;;5.80;99.90;;;;;;7347751;19;110857;-84
2021/12/22 13:55:16;;;;;;;;;;;5.80;99.90;;;;;;7346317;19;110349;-84
2021/12/22 13:57:43;;;;;;;;;;;5.80;99.90;;;;;;7354071;19;109418;-85
2021/12/22 14:00:10;;;;;;;;;;;5.80;99.90;;;;;;7344171;19;111926;-84
2021/12/22 14:02:39;;;;;;;;;;;5.70;99.90;;;;;;7347524;19;109798;-84
2021/12/22 14:05:14;;;;;;;;;;;5.70;99.90;;;;;;7343836;19;110660;-84
2021/12/22 14:07:41;;;;;;;;;;;5.60;99.90;;;;;;7345868;19;112328;-84
2021/12/22 14:10:09;;;;;;;;;;;5.60;99.90;;;;;;7344634;19;109634;-84
2021/12/22 14:12:37;;;;;;;;;;;5.60;99.90;;;;;;7347515;19;110889;-85
2021/12/22 14:15:04;;;;;;;;;;;5.50;99.90;;;;;;7346068;19;111449;-84
2021/12/22 14:17:44;;;;;;;;;;;5.50;99.90;;;;;;7346451;19;109327;-84
2021/12/22 14:20:12;;;;;;;;;;;5.50;99.90;;;;;;7351877;19;112010;-84
2021/12/22 14:22:41;;;;;;;;;;;5.50;99.90;;;;;;7346570;19;109415;-84
2021/12/22 14:25:10;;;;;;;;;;;5.50;99.90;;;;;;7346402;19;110786;-84
2021/12/22 14:27:38;;;;;;;;;;;5.50;99.90;;;;;;7343617;19;111752;-84
2021/12/22 14:30:07;;;;;;;;;;;5.40;99.90;;;;;;7346367;19;109828;-84
2021/12/22 14:32:35;;;;;;;;;;;5.40;99.90;;;;;;7346268;19;110862;-84
2021/12/22 14:35:08;;;;;;;;;;;5.40;99.90;;;;;;7343541;19;112046;-84
2021/12/22 14:37:36;;;;;;;;;;;5.30;99.90;;;;;;7339755;19;109902;-84
2021/12/22 14:40:14;;;;;;;;;;;5.30;99.90;;;;;;7337168;19;110749;-84
2021/12/22 14:42:41;;;;;;;;;;;5.20;99.90;;;;;;7350353;19;113311;-85
2021/12/22 14:45:15;;;;;;;;;;;5.10;99.90;;;;;;7338874;19;110911;-85
2021/12/22 14:47:42;;;;;;;;;;;5.00;99.90;;;;;;7341259;19;113795;-84
2021/12/22 14:50:15;;;;;;;;;;;5.00;99.90;;;;;;7342514;19;109332;-84
2021/12/22 14:52:59;;;;;;;;;;;4.90;99.90;;;;;;7345048;19;111024;-84
2021/12/22 14:55:53;;;;;;;;;;;4.90;99.90;;;;;;7345818;19;112216;-84